Donna Kay — WDD9650 — position and weather

sailwx.info

Track history (hours):
 
Tides and Currents Weather Stations Pressure Air Temp Water Temp Dewpoint Dewpoint Depression Visibility Wind Speed Wind Dir Waves Ship Positions

Donna Kay

Owner: Vane Line Bunkering, Philadelphia, PA. More information available from US FCC via Universal Licensing System and Coast Guard Vessel Documentation Center.

Last reported at 2018-Jul-23 07:30 UTC. Time now 2018-Jul-23 07:29 UTC.
Position N 39°51' W 075°18'.

Length 22 m; draft 2.3 m.

Type: Tug. MMSI: 367314440.

Date/timePositionNaut miles runAvg speedWind from/ knotsBaromVisibWave heightAir tempDewpointWater temp
2018-Jul-23 07:30N 39°51' W 075°18'0 0.0
2018-Jul-23 07:00N 39°51' W 075°18'0 0.0
2018-Jul-23 06:30N 39°51' W 075°18'0 0.0
2018-Jul-23 06:00N 39°51' W 075°18'0 0.0
2018-Jul-23 05:30N 39°51' W 075°18'0 0.0
2018-Jul-23 05:00N 39°51' W 075°18'0 0.0
2018-Jul-23 04:31N 39°51' W 075°18'0 0.0
2018-Jul-23 04:00N 39°51' W 075°18'0 0.2
2018-Jul-23 03:30N 39°51' W 075°18'3 5.6
2018-Jul-23 03:00N 39°50' W 075°21'1 1.4
2018-Jul-23 02:30N 39°50' W 075°22'1 1.1
2018-Jul-23 02:00N 39°50' W 075°22'2 3.8
2018-Jul-23 01:29N 39°51' W 075°19'1 2.7
2018-Jul-23 01:00N 39°51' W 075°18'2 3.3
2018-Jul-23 00:30N 39°51' W 075°20'2 3.9
2018-Jul-23 00:00N 39°50' W 075°22'0 0.0
2018-Jul-22 23:30N 39°50' W 075°22'0 0.0
2018-Jul-22 22:59N 39°50' W 075°22'0 0.0
2018-Jul-22 22:30N 39°50' W 075°22'0 0.0
2018-Jul-22 22:00N 39°50' W 075°22'0 0.0
2018-Jul-22 21:30N 39°50' W 075°22'0 0.0
2018-Jul-22 21:00N 39°50' W 075°22'0 0.0
2018-Jul-22 20:30N 39°50' W 075°22'0 0.0
2018-Jul-22 20:00N 39°50' W 075°22'0 0.3
2018-Jul-22 19:30N 39°49' W 075°21'0 0.0
2018-Jul-22 19:00N 39°49' W 075°21'1 1.4
2018-Jul-22 18:30N 39°50' W 075°21'3 6.4
2018-Jul-22 18:00N 39°51' W 075°17'0 0.7
2018-Jul-22 17:30N 39°51' W 075°18'2 3.9
2018-Jul-22 17:00N 39°51' W 075°20'2 3.2
2018-Jul-22 16:30N 39°50' W 075°22'0 0.3
2018-Jul-22 16:00N 39°50' W 075°22'0 0.0
2018-Jul-22 15:00N 39°50' W 075°22'0 0.0
2018-Jul-22 14:30N 39°50' W 075°22'0 0.0
2018-Jul-22 14:00N 39°50' W 075°22'0 0.0
2018-Jul-22 13:30N 39°50' W 075°22'0 0.2
2018-Jul-22 13:00N 39°50' W 075°21'0 0.7
2018-Jul-22 12:30N 39°49' W 075°22'1 2.9
2018-Jul-22 12:00N 39°51' W 075°21'2 3.9
2018-Jul-22 11:30N 39°51' W 075°18'0 1.0
2018-Jul-22 11:01N 39°51' W 075°18'2 3.2
2018-Jul-22 10:30N 39°51' W 075°20'2 3.9
2018-Jul-22 10:00N 39°50' W 075°22'0 0.0
2018-Jul-22 09:30N 39°50' W 075°22'0 0.0
2018-Jul-22 09:00N 39°50' W 075°22'0 0.0
2018-Jul-22 08:29N 39°50' W 075°22'0 0.0
2018-Jul-22 07:58N 39°50' W 075°22'0 0.0
2018-Jul-22 07:30N 39°50' W 075°22'0 0.0
2018-Jul-22 07:00N 39°50' W 075°22'0 0.0
2018-Jul-22 06:30N 39°50' W 075°22'0 0.0
2018-Jul-22 06:01N 39°50' W 075°22'0 0.0
2018-Jul-22 05:30N 39°50' W 075°22'0 0.0
2018-Jul-22 05:00N 39°50' W 075°22'0 0.0
2018-Jul-22 04:30N 39°50' W 075°22'0 0.0
2018-Jul-22 03:59N 39°50' W 075°22'0 0.0
2018-Jul-22 03:30N 39°50' W 075°22'0 0.0
2018-Jul-22 03:00N 39°50' W 075°22'0 0.0
2018-Jul-22 02:30N 39°50' W 075°22'0 0.0
2018-Jul-22 02:00N 39°50' W 075°22'0 0.0
2018-Jul-22 01:30N 39°50' W 075°22'0 0.0
2018-Jul-22 01:00N 39°50' W 075°22'0 0.0
2018-Jul-22 00:30N 39°50' W 075°22'0 0.0
2018-Jul-21 23:59N 39°50' W 075°22'0 0.0
2018-Jul-21 23:29N 39°50' W 075°22'0 0.0
2018-Jul-21 23:00N 39°50' W 075°22'0 0.3
2018-Jul-21 22:30N 39°50' W 075°21'0 0.9
2018-Jul-21 22:00N 39°50' W 075°22'2 3.4
2018-Jul-21 21:30N 39°51' W 075°20'2 4.1
2018-Jul-21 21:00N 39°51' W 075°18'0 0.2
2018-Jul-21 20:31N 39°51' W 075°18'1 3.0
2018-Jul-21 20:00N 39°51' W 075°20'2 4.3
2018-Jul-21 19:30N 39°50' W 075°22'0 0.2
2018-Jul-21 19:00N 39°50' W 075°22'0 0.0
2018-Jul-21 18:30N 39°50' W 075°22'0 0.0
2018-Jul-21 18:00N 39°50' W 075°22'0 0.0
2018-Jul-21 17:31N 39°50' W 075°22'0 0.0
2018-Jul-21 17:00N 39°50' W 075°22'0 0.0
2018-Jul-21 16:30N 39°50' W 075°22'0 0.2
2018-Jul-21 16:01N 39°49' W 075°22'0 0.0
2018-Jul-21 15:31N 39°49' W 075°22'0 0.2
2018-Jul-21 15:00N 39°50' W 075°22'0 0.0
2018-Jul-21 14:29N 39°50' W 075°22'0 0.1
2018-Jul-21 13:31N 39°50' W 075°22'1 2.1
2018-Jul-21 13:00N 39°50' W 075°21'2 3.8
2018-Jul-21 12:30N 39°51' W 075°19'1 1.5
2018-Jul-21 12:00N 39°51' W 075°18'0 0.4
2018-Jul-21 11:31N 39°51' W 075°18'0 0.2
2018-Jul-21 11:00N 39°51' W 075°18'0 0.0
2018-Jul-21 10:30N 39°51' W 075°18'3 6.7
2018-Jul-21 10:00N 39°50' W 075°22'1 1.1
2018-Jul-21 09:30N 39°49' W 075°21'0 0.0
2018-Jul-21 09:01N 39°49' W 075°21'0 0.0
2018-Jul-21 08:30N 39°49' W 075°21'0 0.0
2018-Jul-21 08:01N 39°49' W 075°21'0 0.0
2018-Jul-21 07:31N 39°49' W 075°21'0 0.0
2018-Jul-21 07:00N 39°49' W 075°21'0 0.0
2018-Jul-21 06:30N 39°49' W 075°21'0 0.0
2018-Jul-21 06:00N 39°49' W 075°21'0 0.0
2018-Jul-21 05:30N 39°49' W 075°21'0 0.0
2018-Jul-21 05:01N 39°49' W 075°21'0 0.0
2018-Jul-21 04:31N 39°49' W 075°21'0 0.0
2018-Jul-21 04:01N 39°49' W 075°21'0 0.0
2018-Jul-21 03:30N 39°49' W 075°21'1 1.3
2018-Jul-21 03:00N 39°50' W 075°22'3 6.6
2018-Jul-21 02:31N 39°51' W 075°17'0 0.6
2018-Jul-21 02:00N 39°51' W 075°18'3 5.7
2018-Jul-21 01:30N 39°50' W 075°21'1 1.6
2018-Jul-21 01:00N 39°49' W 075°21'0 0.0
2018-Jul-21 00:30N 39°49' W 075°21'0 0.0
2018-Jul-21 00:00N 39°49' W 075°21'0 0.0
2018-Jul-20 23:30N 39°49' W 075°21'0 0.0
2018-Jul-20 23:00N 39°49' W 075°21'0 0.0
2018-Jul-20 22:30N 39°49' W 075°21'0 0.0
2018-Jul-20 22:00N 39°49' W 075°21'0 0.0
2018-Jul-20 21:30N 39°49' W 075°21'0 0.2
2018-Jul-20 21:00N 39°49' W 075°22'0 0.3
2018-Jul-20 20:30N 39°50' W 075°21'0 0.7
2018-Jul-20 20:01N 39°50' W 075°22'0 0.6
2018-Jul-20 19:30N 39°49' W 075°22'0 0.2
2018-Jul-20 19:01N 39°49' W 075°21'0 1.0
2018-Jul-20 18:30N 39°50' W 075°22'3 5.5
2018-Jul-20 17:59N 39°51' W 075°19'1 1.8
2018-Jul-20 17:30N 39°51' W 075°18'1 2.1
2018-Jul-20 17:01N 39°51' W 075°19'3 4.9
2018-Jul-20 16:30N 39°50' W 075°22'1 1.2
2018-Jul-20 16:00N 39°49' W 075°21'0 0.0
2018-Jul-20 15:31N 39°49' W 075°21'0 0.0
2018-Jul-20 15:01N 39°49' W 075°21'0 0.0
2018-Jul-20 14:30N 39°49' W 075°21'0 0.3
2018-Jul-20 14:00N 39°50' W 075°21'0 0.3
2018-Jul-20 13:31N 39°49' W 075°21'0 0.0
2018-Jul-20 13:00N 39°49' W 075°21'0 0.0
2018-Jul-20 12:30N 39°49' W 075°21'0 0.0
2018-Jul-20 12:00N 39°49' W 075°21'0 0.0
2018-Jul-20 11:31N 39°49' W 075°21'0 0.0
2018-Jul-20 11:01N 39°49' W 075°21'0 0.6
2018-Jul-20 10:31N 39°49' W 075°22'1 2.9
2018-Jul-20 10:00N 39°51' W 075°21'2 4.1
2018-Jul-20 09:30N 39°51' W 075°18'0 0.7
2018-Jul-20 09:00N 39°51' W 075°18'3 5.7
2018-Jul-20 08:30N 39°50' W 075°21'1 1.8
2018-Jul-20 08:00N 39°49' W 075°21'0 0.0
2018-Jul-20 07:31N 39°49' W 075°21'0 0.0
2018-Jul-20 07:00N 39°49' W 075°21'0 0.0
2018-Jul-20 06:30N 39°49' W 075°21'0 0.0
2018-Jul-20 06:01N 39°49' W 075°21'0 0.0
2018-Jul-20 05:30N 39°49' W 075°21'0 0.0
2018-Jul-20 05:01N 39°49' W 075°21'0 0.0
2018-Jul-20 04:31N 39°49' W 075°21'0 0.0
2018-Jul-20 04:00N 39°49' W 075°21'0 0.0
2018-Jul-20 03:30N 39°49' W 075°21'0 0.0
2018-Jul-20 03:00N 39°49' W 075°21'0 0.0
2018-Jul-20 02:30N 39°49' W 075°21'1 2.4
2018-Jul-20 02:00N 39°50' W 075°23'1 2.3
2018-Jul-20 01:30N 39°49' W 075°22'0 0.7
2018-Jul-20 01:00N 39°50' W 075°22'2 3.4
2018-Jul-20 00:30N 39°51' W 075°20'2 4.3
2018-Jul-20 00:00N 39°51' W 075°18'2 3.1
2018-Jul-19 23:30N 39°51' W 075°20'2 4.0
2018-Jul-19 23:00N 39°49' W 075°21'0 0.0
2018-Jul-19 22:30N 39°49' W 075°21'0 0.0
2018-Jul-19 22:00N 39°49' W 075°21'0 0.0
2018-Jul-19 21:30N 39°49' W 075°21'0 0.0
2018-Jul-19 21:00N 39°49' W 075°21'0 0.0
2018-Jul-19 20:30N 39°49' W 075°21'0 0.6
2018-Jul-19 20:00N 39°49' W 075°22'3 5.4
2018-Jul-19 19:30N 39°51' W 075°19'0 0.0
2018-Jul-19 19:00N 39°51' W 075°19'3 5.2
2018-Jul-19 18:30N 39°49' W 075°22'0 0.2
2018-Jul-19 17:58N 39°49' W 075°21'0 0.0
2018-Jul-19 17:30N 39°49' W 075°21'0 0.0
2018-Jul-19 16:25N 39°49' W 075°21'0 0.0
2018-Jul-19 16:00N 39°49' W 075°21'0 0.9
2018-Jul-19 15:30N 39°50' W 075°22'2 4.9
2018-Jul-19 15:00N 39°51' W 075°19'1 2.8
2018-Jul-19 14:31N 39°51' W 075°18'3 3.4
2018-Jul-19 13:30N 39°50' W 075°22'1 1.1
2018-Jul-19 13:00N 39°49' W 075°21'0 0.0
2018-Jul-19 12:30N 39°49' W 075°21'0 0.0
2018-Jul-19 12:01N 39°49' W 075°21'0 0.0
2018-Jul-19 11:30N 39°49' W 075°21'0 0.0
2018-Jul-19 11:00N 39°49' W 075°21'0 0.0
2018-Jul-19 10:30N 39°49' W 075°21'0 0.0
2018-Jul-19 10:00N 39°49' W 075°21'0 0.0
2018-Jul-19 09:30N 39°49' W 075°21'0 0.0
2018-Jul-19 09:00N 39°49' W 075°21'0 0.0
2018-Jul-19 08:31N 39°49' W 075°21'0 0.0
2018-Jul-19 08:00N 39°49' W 075°21'0 0.0
2018-Jul-19 07:30N 39°49' W 075°21'0 0.0
2018-Jul-19 07:00N 39°49' W 075°21'0 0.0
2018-Jul-19 06:30N 39°49' W 075°21'1 1.0
2018-Jul-19 06:00N 39°50' W 075°22'3 5.6
2018-Jul-19 05:30N 39°51' W 075°19'1 1.5
2018-Jul-19 05:00N 39°51' W 075°18'2 4.4
2018-Jul-19 04:30N 39°51' W 075°21'1 2.7
2018-Jul-19 04:01N 39°50' W 075°22'0 0.2
2018-Jul-19 03:29N 39°49' W 075°21'0 0.0
2018-Jul-19 03:00N 39°49' W 075°21'0 0.0
2018-Jul-19 02:30N 39°49' W 075°21'0 0.0
2018-Jul-19 02:00N 39°49' W 075°21'0 0.0
2018-Jul-19 01:30N 39°49' W 075°21'0 0.0
2018-Jul-19 01:00N 39°49' W 075°21'0 0.0
2018-Jul-19 00:30N 39°49' W 075°21'0 0.0
2018-Jul-19 00:01N 39°49' W 075°21'0 0.0
2018-Jul-18 23:30N 39°49' W 075°21'0 0.0
2018-Jul-18 23:00N 39°49' W 075°21'0 0.0
2018-Jul-18 22:30N 39°49' W 075°21'0 0.0
2018-Jul-18 22:00N 39°49' W 075°21'0 0.3
2018-Jul-18 21:30N 39°49' W 075°22'0 0.0
2018-Jul-18 21:00N 39°49' W 075°22'0 0.3
2018-Jul-18 20:30N 39°49' W 075°21'0 0.7
2018-Jul-18 20:01N 39°50' W 075°22'0 0.1
2018-Jul-18 19:30N 39°50' W 075°22'1 2.3
2018-Jul-18 19:00N 39°50' W 075°21'2 4.3
2018-Jul-18 18:30N 39°51' W 075°18'1 1.1
2018-Jul-18 18:00N 39°51' W 075°18'2 3.8
2018-Jul-18 17:30N 39°51' W 075°20'2 3.5
2018-Jul-18 17:00N 39°50' W 075°22'0 0.2
2018-Jul-18 16:30N 39°49' W 075°21'0 0.0
2018-Jul-18 16:00N 39°49' W 075°21'0 0.0
2018-Jul-18 15:29N 39°49' W 075°21'0 0.0
2018-Jul-18 15:00N 39°49' W 075°21'0 0.0
2018-Jul-18 14:30N 39°49' W 075°21'0 0.0
2018-Jul-18 13:30N 39°49' W 075°21'0 0.0
2018-Jul-18 13:00N 39°49' W 075°21'0 0.0
2018-Jul-18 12:30N 39°49' W 075°21'0 0.0
2018-Jul-18 12:01N 39°49' W 075°21'0 0.0
2018-Jul-18 11:30N 39°49' W 075°21'0 0.3
2018-Jul-18 10:30N 39°50' W 075°22'2 3.2
2018-Jul-18 10:00N 39°51' W 075°21'2 3.7
2018-Jul-18 09:30N 39°51' W 075°18'0 0.9
2018-Jul-18 08:59N 39°51' W 075°18'1 1.8
2018-Jul-18 08:31N 39°51' W 075°19'3 5.2
2018-Jul-18 08:00N 39°50' W 075°22'0 0.2
2018-Jul-18 07:30N 39°49' W 075°21'0 0.0
2018-Jul-18 07:00N 39°49' W 075°21'0 0.0
2018-Jul-18 06:30N 39°49' W 075°21'0 0.0
2018-Jul-18 06:00N 39°49' W 075°21'0 0.0
2018-Jul-18 05:30N 39°49' W 075°21'0 0.0
2018-Jul-18 05:00N 39°49' W 075°21'0 0.0
2018-Jul-18 04:30N 39°49' W 075°21'0 0.0
2018-Jul-18 04:00N 39°49' W 075°21'0 0.0
2018-Jul-18 03:31N 39°49' W 075°21'0 0.0
2018-Jul-18 03:01N 39°49' W 075°21'0 0.0
2018-Jul-18 02:30N 39°49' W 075°21'0 0.0
2018-Jul-18 02:00N 39°49' W 075°21'0 0.0
2018-Jul-18 01:30N 39°49' W 075°21'0 0.8
2018-Jul-18 01:00N 39°50' W 075°22'2 4.6
2018-Jul-18 00:30N 39°51' W 075°20'2 3.0
2018-Jul-18 00:00N 39°51' W 075°18'0 0.6
2018-Jul-17 23:30N 39°51' W 075°18'0 0.1
2018-Jul-17 22:59N 39°51' W 075°18'3 5.7
2018-Jul-17 22:30N 39°50' W 075°22'1 1.0
2018-Jul-17 22:00N 39°50' W 075°22'0 0.0
2018-Jul-17 21:30N 39°50' W 075°22'0 0.0
2018-Jul-17 21:00N 39°50' W 075°22'0 0.0
2018-Jul-17 20:30N 39°50' W 075°22'0 0.0
2018-Jul-17 20:00N 39°50' W 075°22'0 0.0
2018-Jul-17 19:30N 39°50' W 075°22'0 0.0
2018-Jul-17 18:59N 39°50' W 075°22'0 0.0
2018-Jul-17 18:30N 39°50' W 075°22'0 0.0
2018-Jul-17 18:00N 39°50' W 075°22'0 0.0
2018-Jul-17 17:30N 39°50' W 075°22'0 0.0
2018-Jul-17 17:00N 39°50' W 075°22'0 0.0
2018-Jul-17 16:31N 39°50' W 075°22'0 0.2
2018-Jul-17 16:01N 39°50' W 075°22'1 1.3
2018-Jul-17 15:30N 39°50' W 075°22'3 6.5
2018-Jul-17 15:00N 39°51' W 075°18'0 0.3
2018-Jul-17 14:30N 39°51' W 075°18'0 0.8
2018-Jul-17 14:00N 39°51' W 075°18'0 0.2
2018-Jul-17 13:30N 39°51' W 075°18'0 0.6
2018-Jul-17 13:00N 39°51' W 075°19'0 0.1
2018-Jul-17 12:30N 39°51' W 075°19'1 1.8
2018-Jul-17 12:00N 39°51' W 075°20'2 3.1
2018-Jul-17 11:31N 39°50' W 075°22'1 1.1
2018-Jul-17 11:00N 39°50' W 075°22'0 0.1
2018-Jul-17 10:30N 39°50' W 075°22'0 0.0
2018-Jul-17 10:00N 39°50' W 075°22'0 0.0
2018-Jul-17 09:30N 39°50' W 075°22'0 0.1
2018-Jul-17 09:00N 39°50' W 075°22'0 0.2
2018-Jul-17 08:30N 39°50' W 075°22'2 3.1
2018-Jul-17 08:00N 39°51' W 075°20'3 5.1
2018-Jul-17 07:30N 39°51' W 075°17'2 4.8
2018-Jul-17 07:00N 39°52' W 075°14'3 5.3
2018-Jul-17 06:30N 39°53' W 075°11'2 4.7
2018-Jul-17 06:00N 39°54' W 075°08'3 5.4
2018-Jul-17 05:30N 39°56' W 075°08'1 2.1
2018-Jul-17 05:00N 39°57' W 075°08'2 4.9
2018-Jul-17 04:30N 39°55' W 075°08'3 6.0
2018-Jul-17 04:00N 39°53' W 075°11'2 3.7
2018-Jul-17 03:31N 39°54' W 075°13'1 2.4
2018-Jul-17 03:00N 39°53' W 075°12'2 4.9
2018-Jul-17 02:30N 39°53' W 075°09'4 7.0
2018-Jul-17 02:00N 39°57' W 075°08'3 6.7
2018-Jul-17 01:30N 39°59' W 075°05'0 0.5
2018-Jul-17 01:01N 39°59' W 075°05'3 6.0
2018-Jul-17 00:30N 39°57' W 075°08'5 5.3
2018-Jul-16 23:30N 39°53' W 075°12'1 1.2
2018-Jul-16 23:00N 39°54' W 075°12'0 0.1
2018-Jul-16 22:30N 39°53' W 075°12'0 0.0
2018-Jul-16 22:00N 39°53' W 075°12'0 0.0
2018-Jul-16 21:30N 39°53' W 075°12'0 0.0
2018-Jul-16 21:00N 39°53' W 075°12'0 0.0
2018-Jul-16 20:30N 39°53' W 075°12'0 0.2
2018-Jul-16 20:00N 39°54' W 075°12'0 0.0
2018-Jul-16 19:30N 39°54' W 075°12'0 0.7
2018-Jul-16 19:00N 39°53' W 075°12'510.1
2018-Jul-16 18:30N 39°51' W 075°17'4 8.8
2018-Jul-16 18:00N 39°50' W 075°23'0 0.0
2018-Jul-16 17:30N 39°50' W 075°23'0 0.0
2018-Jul-16 17:00N 39°50' W 075°23'0 0.0
2018-Jul-16 16:30N 39°50' W 075°23'0 0.0
2018-Jul-16 16:00N 39°50' W 075°23'0 0.0
2018-Jul-16 15:30N 39°50' W 075°23'0 0.0
2018-Jul-16 15:00N 39°50' W 075°23'0 0.0
2018-Jul-16 14:30N 39°50' W 075°23'0 0.0
2018-Jul-16 14:00N 39°50' W 075°23'0 0.0
2018-Jul-16 13:29N 39°50' W 075°23'0 0.4
2018-Jul-16 13:01N 39°49' W 075°23'4 7.6
2018-Jul-16 12:30N 39°47' W 075°27'4 7.3
2018-Jul-16 12:00N 39°44' W 075°30'3 6.9
2018-Jul-16 11:30N 39°41' W 075°31'3 5.6
2018-Jul-16 11:00N 39°39' W 075°33'2 5.0
2018-Jul-16 10:31N 39°37' W 075°34'2 4.5
2018-Jul-16 10:01N 39°34' W 075°33'3 5.4
2018-Jul-16 09:30N 39°33' W 075°36'4 7.6
2018-Jul-16 09:00N 39°33' W 075°41'3 6.9
2018-Jul-16 08:30N 39°32' W 075°46'3 6.8
2018-Jul-16 08:00N 39°32' W 075°50'3 6.9
2018-Jul-16 07:30N 39°31' W 075°54'4 7.8
2018-Jul-16 07:00N 39°28' W 075°58'4 8.5
2018-Jul-16 06:29N 39°25' W 076°02'4 8.6
2018-Jul-16 06:00N 39°23' W 076°06'4 8.8
2018-Jul-16 05:30N 39°20' W 076°11'5 8.8
2018-Jul-16 04:59N 39°17' W 076°15'4 8.8
2018-Jul-16 04:30N 39°14' W 076°19'5 9.0
2018-Jul-16 03:57N 39°11' W 076°24'5 8.6
2018-Jul-16 03:24N 39°12' W 076°31'4 9.5
2018-Jul-16 03:00N 39°15' W 076°34'2 4.2
2018-Jul-16 02:28N 39°16' W 076°36'0 0.0
2018-Jul-16 01:59N 39°16' W 076°36'0 0.0
2018-Jul-16 01:30N 39°16' W 076°36'0 0.0
2018-Jul-16 01:00N 39°16' W 076°36'0 0.0
2018-Jul-16 00:30N 39°16' W 076°36'0 0.0
2018-Jul-16 00:00N 39°16' W 076°36'0 0.0
2018-Jul-15 23:30N 39°16' W 076°36'0 0.0
2018-Jul-15 22:59N 39°16' W 076°36'0 0.0
2018-Jul-15 22:30N 39°16' W 076°36'0 0.0
2018-Jul-15 22:00N 39°16' W 076°36'0 0.0
2018-Jul-15 21:30N 39°16' W 076°36'0 0.0
2018-Jul-15 20:59N 39°16' W 076°36'0 0.0
2018-Jul-15 20:30N 39°16' W 076°36'0 0.0
2018-Jul-15 20:00N 39°16' W 076°36'0 0.0
2018-Jul-15 19:29N 39°16' W 076°36'0 0.0
2018-Jul-15 19:00N 39°16' W 076°36'0 0.0
2018-Jul-15 18:30N 39°16' W 076°36'0 0.0
2018-Jul-15 18:00N 39°16' W 076°36'0 0.0
2018-Jul-15 17:30N 39°16' W 076°36'0 0.0
2018-Jul-15 16:59N 39°16' W 076°36'0 0.0
2018-Jul-15 16:30N 39°16' W 076°36'0 0.0
2018-Jul-15 16:00N 39°16' W 076°36'0 0.0
2018-Jul-15 15:30N 39°16' W 076°36'0 0.0
2018-Jul-15 15:00N 39°16' W 076°36'0 0.0
2018-Jul-15 14:30N 39°16' W 076°36'0 0.0
2018-Jul-15 14:00N 39°16' W 076°36'0 0.0
2018-Jul-15 13:30N 39°16' W 076°36'0 0.0
2018-Jul-15 13:00N 39°16' W 076°36'0 0.0
2018-Jul-15 12:30N 39°16' W 076°36'0 0.0
2018-Jul-15 12:00N 39°16' W 076°36'0 0.0
2018-Jul-15 11:30N 39°16' W 076°36'0 0.0
2018-Jul-15 11:00N 39°16' W 076°36'0 0.0
2018-Jul-15 10:30N 39°16' W 076°36'0 0.0
2018-Jul-15 10:00N 39°16' W 076°36'0 0.0
2018-Jul-15 09:30N 39°16' W 076°36'0 0.0
2018-Jul-15 08:56N 39°16' W 076°36'0 0.0
2018-Jul-15 08:30N 39°16' W 076°36'0 0.0
2018-Jul-15 07:59N 39°16' W 076°36'0 0.0
2018-Jul-15 07:30N 39°16' W 076°36'0 0.0
2018-Jul-15 07:00N 39°16' W 076°36'0 0.0
2018-Jul-15 06:30N 39°16' W 076°36'0 0.0
2018-Jul-15 06:01N 39°16' W 076°36'0 0.0
2018-Jul-15 05:30N 39°16' W 076°36'0 0.0
2018-Jul-15 05:00N 39°16' W 076°36'0 0.0
2018-Jul-15 04:30N 39°16' W 076°36'0 0.0
2018-Jul-15 04:00N 39°16' W 076°36'0 0.0
2018-Jul-15 03:30N 39°16' W 076°36'0 0.0
2018-Jul-15 03:00N 39°16' W 076°36'0 0.0
2018-Jul-15 02:30N 39°16' W 076°36'0 0.0
2018-Jul-15 02:00N 39°16' W 076°36'0 0.0
2018-Jul-15 01:30N 39°16' W 076°36'0 0.0
2018-Jul-15 01:00N 39°16' W 076°36'0 0.0
2018-Jul-15 00:30N 39°16' W 076°36'0 0.0
2018-Jul-15 00:00N 39°16' W 076°36'0 0.0
2018-Jul-14 23:30N 39°16' W 076°36'0 0.0
2018-Jul-14 23:00N 39°16' W 076°36'0 0.0
2018-Jul-14 22:31N 39°16' W 076°36'0 0.0
2018-Jul-14 22:00N 39°16' W 076°36'0 0.0
2018-Jul-14 21:30N 39°16' W 076°36'0 0.0
2018-Jul-14 21:00N 39°16' W 076°36'0 0.0
2018-Jul-14 20:30N 39°16' W 076°36'0 0.0
2018-Jul-14 20:00N 39°16' W 076°36'0 0.0
2018-Jul-14 19:30N 39°16' W 076°36'0 0.0
2018-Jul-14 19:00N 39°16' W 076°36'0 0.0
2018-Jul-14 18:30N 39°16' W 076°36'0 0.0
2018-Jul-14 18:00N 39°16' W 076°36'0 0.0
2018-Jul-14 17:30N 39°16' W 076°36'0 0.0
2018-Jul-14 17:00N 39°16' W 076°36'0 0.0
2018-Jul-14 16:30N 39°16' W 076°36'0 0.0
2018-Jul-14 16:00N 39°16' W 076°36'0 0.0
2018-Jul-14 15:30N 39°16' W 076°36'0 0.0
2018-Jul-14 15:00N 39°16' W 076°36'0 0.0
2018-Jul-14 14:30N 39°16' W 076°36'0 0.0
2018-Jul-14 13:30N 39°16' W 076°36'0 0.0
2018-Jul-14 13:00N 39°16' W 076°36'0 0.0
2018-Jul-14 12:30N 39°16' W 076°36'0 0.0
2018-Jul-14 12:00N 39°16' W 076°36'0 0.0
2018-Jul-14 11:30N 39°16' W 076°36'0 0.0
2018-Jul-14 11:00N 39°16' W 076°36'0 0.0
2018-Jul-14 10:30N 39°16' W 076°36'0 0.0
2018-Jul-14 10:00N 39°16' W 076°36'0 0.0
2018-Jul-14 09:29N 39°16' W 076°36'0 0.0
2018-Jul-14 09:00N 39°16' W 076°36'0 0.0
2018-Jul-14 08:30N 39°16' W 076°36'0 0.0
2018-Jul-14 08:00N 39°16' W 076°36'0 0.0
2018-Jul-14 07:30N 39°16' W 076°36'0 0.0
2018-Jul-14 07:00N 39°16' W 076°36'0 0.0
2018-Jul-14 06:30N 39°16' W 076°36'0 0.0
2018-Jul-14 06:00N 39°16' W 076°36'0 0.0
2018-Jul-14 05:30N 39°16' W 076°36'0 0.0
2018-Jul-14 05:00N 39°16' W 076°36'0 0.0
2018-Jul-14 04:30N 39°16' W 076°36'0 0.0
2018-Jul-14 04:00N 39°16' W 076°36'0 0.0
2018-Jul-14 03:30N 39°16' W 076°36'0 0.0
2018-Jul-14 03:00N 39°16' W 076°36'0 0.0
2018-Jul-14 02:30N 39°16' W 076°36'0 0.0
2018-Jul-14 02:00N 39°16' W 076°36'0 0.0
2018-Jul-14 01:30N 39°16' W 076°36'0 0.0
2018-Jul-14 01:00N 39°16' W 076°36'0 0.0
2018-Jul-14 00:30N 39°16' W 076°36'0 0.0
2018-Jul-14 00:00N 39°16' W 076°36'0 0.0
2018-Jul-13 23:30N 39°16' W 076°36'0 0.0
2018-Jul-13 23:00N 39°16' W 076°36'0 0.0
2018-Jul-13 22:30N 39°16' W 076°36'0 0.0
2018-Jul-13 22:00N 39°16' W 076°36'0 0.0
2018-Jul-13 21:30N 39°16' W 076°36'0 0.0
2018-Jul-13 21:00N 39°16' W 076°36'0 0.0
2018-Jul-13 20:30N 39°16' W 076°36'0 0.0
2018-Jul-13 20:00N 39°16' W 076°36'0 0.0
2018-Jul-13 19:30N 39°16' W 076°36'0 0.0
2018-Jul-13 19:00N 39°16' W 076°36'0 0.0
2018-Jul-13 18:30N 39°16' W 076°36'0 0.0
2018-Jul-13 18:00N 39°16' W 076°36'0 0.0
2018-Jul-13 17:30N 39°16' W 076°36'0 0.0
2018-Jul-13 17:00N 39°16' W 076°36'0 0.0
2018-Jul-13 16:30N 39°16' W 076°36'0 0.0
2018-Jul-13 12:38N 39°16' W 076°36'0 0.0
2018-Jul-13 12:30N 39°16' W 076°36'0 0.0
2018-Jul-13 12:00N 39°16' W 076°36'0 0.0
2018-Jul-13 11:31N 39°16' W 076°36'0 0.0
2018-Jul-13 11:01N 39°16' W 076°36'0 0.0
2018-Jul-13 10:30N 39°16' W 076°36'0 0.0
2018-Jul-13 10:00N 39°16' W 076°36'0 0.0
2018-Jul-13 09:30N 39°16' W 076°36'0 0.0
2018-Jul-13 09:00N 39°16' W 076°36'0 0.0
2018-Jul-13 08:30N 39°16' W 076°36'0 0.0
2018-Jul-13 08:01N 39°16' W 076°36'  
Track history (hours):
 
Tides and Currents Weather Stations Pressure Air Temp Water Temp Dewpoint Dewpoint Depression Visibility Wind Speed Wind Dir Waves Ship Positions

Donna Kay

Owner: Vane Line Bunkering, Philadelphia, PA. More information available from US FCC via Universal Licensing System and Coast Guard Vessel Documentation Center.

Last reported at 2018-Jul-23 07:30 UTC. Time now 2018-Jul-23 07:29 UTC.
Position N 39°51' W 075°18'.

Length 22 m; draft 2.3 m.

Type: Tug. MMSI: 367314440.

Date/timePositionNaut miles runAvg speedWind from/ knotsBaromVisibWave heightAir tempDewpointWater temp
2018-Jul-23 07:30N 39°51' W 075°18'0 0.0
2018-Jul-23 07:00N 39°51' W 075°18'0 0.0
2018-Jul-23 06:30N 39°51' W 075°18'0 0.0
2018-Jul-23 06:00N 39°51' W 075°18'0 0.0
2018-Jul-23 05:30N 39°51' W 075°18'0 0.0
2018-Jul-23 05:00N 39°51' W 075°18'0 0.0
2018-Jul-23 04:31N 39°51' W 075°18'0 0.0
2018-Jul-23 04:00N 39°51' W 075°18'0 0.2
2018-Jul-23 03:30N 39°51' W 075°18'3 5.6
2018-Jul-23 03:00N 39°50' W 075°21'1 1.4
2018-Jul-23 02:30N 39°50' W 075°22'1 1.1
2018-Jul-23 02:00N 39°50' W 075°22'2 3.8
2018-Jul-23 01:29N 39°51' W 075°19'1 2.7
2018-Jul-23 01:00N 39°51' W 075°18'2 3.3
2018-Jul-23 00:30N 39°51' W 075°20'2 3.9
2018-Jul-23 00:00N 39°50' W 075°22'0 0.0
2018-Jul-22 23:30N 39°50' W 075°22'0 0.0
2018-Jul-22 22:59N 39°50' W 075°22'0 0.0
2018-Jul-22 22:30N 39°50' W 075°22'0 0.0
2018-Jul-22 22:00N 39°50' W 075°22'0 0.0
2018-Jul-22 21:30N 39°50' W 075°22'0 0.0
2018-Jul-22 21:00N 39°50' W 075°22'0 0.0
2018-Jul-22 20:30N 39°50' W 075°22'0 0.0
2018-Jul-22 20:00N 39°50' W 075°22'0 0.3
2018-Jul-22 19:30N 39°49' W 075°21'0 0.0
2018-Jul-22 19:00N 39°49' W 075°21'1 1.4
2018-Jul-22 18:30N 39°50' W 075°21'3 6.4
2018-Jul-22 18:00N 39°51' W 075°17'0 0.7
2018-Jul-22 17:30N 39°51' W 075°18'2 3.9
2018-Jul-22 17:00N 39°51' W 075°20'2 3.2
2018-Jul-22 16:30N 39°50' W 075°22'0 0.3
2018-Jul-22 16:00N 39°50' W 075°22'0 0.0
2018-Jul-22 15:00N 39°50' W 075°22'0 0.0
2018-Jul-22 14:30N 39°50' W 075°22'0 0.0
2018-Jul-22 14:00N 39°50' W 075°22'0 0.0
2018-Jul-22 13:30N 39°50' W 075°22'0 0.2
2018-Jul-22 13:00N 39°50' W 075°21'0 0.7
2018-Jul-22 12:30N 39°49' W 075°22'1 2.9
2018-Jul-22 12:00N 39°51' W 075°21'2 3.9
2018-Jul-22 11:30N 39°51' W 075°18'0 1.0
2018-Jul-22 11:01N 39°51' W 075°18'2 3.2
2018-Jul-22 10:30N 39°51' W 075°20'2 3.9
2018-Jul-22 10:00N 39°50' W 075°22'0 0.0
2018-Jul-22 09:30N 39°50' W 075°22'0 0.0
2018-Jul-22 09:00N 39°50' W 075°22'0 0.0
2018-Jul-22 08:29N 39°50' W 075°22'0 0.0
2018-Jul-22 07:58N 39°50' W 075°22'0 0.0
2018-Jul-22 07:30N 39°50' W 075°22'0 0.0
2018-Jul-22 07:00N 39°50' W 075°22'0 0.0
2018-Jul-22 06:30N 39°50' W 075°22'0 0.0
2018-Jul-22 06:01N 39°50' W 075°22'0 0.0
2018-Jul-22 05:30N 39°50' W 075°22'0 0.0
2018-Jul-22 05:00N 39°50' W 075°22'0 0.0
2018-Jul-22 04:30N 39°50' W 075°22'0 0.0
2018-Jul-22 03:59N 39°50' W 075°22'0 0.0
2018-Jul-22 03:30N 39°50' W 075°22'0 0.0
2018-Jul-22 03:00N 39°50' W 075°22'0 0.0
2018-Jul-22 02:30N 39°50' W 075°22'0 0.0
2018-Jul-22 02:00N 39°50' W 075°22'0 0.0
2018-Jul-22 01:30N 39°50' W 075°22'0 0.0
2018-Jul-22 01:00N 39°50' W 075°22'0 0.0
2018-Jul-22 00:30N 39°50' W 075°22'0 0.0
2018-Jul-21 23:59N 39°50' W 075°22'0 0.0
2018-Jul-21 23:29N 39°50' W 075°22'0 0.0
2018-Jul-21 23:00N 39°50' W 075°22'0 0.3
2018-Jul-21 22:30N 39°50' W 075°21'0 0.9
2018-Jul-21 22:00N 39°50' W 075°22'2 3.4
2018-Jul-21 21:30N 39°51' W 075°20'2 4.1
2018-Jul-21 21:00N 39°51' W 075°18'0 0.2
2018-Jul-21 20:31N 39°51' W 075°18'1 3.0
2018-Jul-21 20:00N 39°51' W 075°20'2 4.3
2018-Jul-21 19:30N 39°50' W 075°22'0 0.2
2018-Jul-21 19:00N 39°50' W 075°22'0 0.0
2018-Jul-21 18:30N 39°50' W 075°22'0 0.0
2018-Jul-21 18:00N 39°50' W 075°22'0 0.0
2018-Jul-21 17:31N 39°50' W 075°22'0 0.0
2018-Jul-21 17:00N 39°50' W 075°22'0 0.0
2018-Jul-21 16:30N 39°50' W 075°22'0 0.2
2018-Jul-21 16:01N 39°49' W 075°22'0 0.0
2018-Jul-21 15:31N 39°49' W 075°22'0 0.2
2018-Jul-21 15:00N 39°50' W 075°22'0 0.0
2018-Jul-21 14:29N 39°50' W 075°22'0 0.1
2018-Jul-21 13:31N 39°50' W 075°22'1 2.1
2018-Jul-21 13:00N 39°50' W 075°21'2 3.8
2018-Jul-21 12:30N 39°51' W 075°19'1 1.5
2018-Jul-21 12:00N 39°51' W 075°18'0 0.4
2018-Jul-21 11:31N 39°51' W 075°18'0 0.2
2018-Jul-21 11:00N 39°51' W 075°18'0 0.0
2018-Jul-21 10:30N 39°51' W 075°18'3 6.7
2018-Jul-21 10:00N 39°50' W 075°22'1 1.1
2018-Jul-21 09:30N 39°49' W 075°21'0 0.0
2018-Jul-21 09:01N 39°49' W 075°21'0 0.0
2018-Jul-21 08:30N 39°49' W 075°21'0 0.0
2018-Jul-21 08:01N 39°49' W 075°21'0 0.0
2018-Jul-21 07:31N 39°49' W 075°21'0 0.0
2018-Jul-21 07:00N 39°49' W 075°21'0 0.0
2018-Jul-21 06:30N 39°49' W 075°21'0 0.0
2018-Jul-21 06:00N 39°49' W 075°21'0 0.0
2018-Jul-21 05:30N 39°49' W 075°21'0 0.0
2018-Jul-21 05:01N 39°49' W 075°21'0 0.0
2018-Jul-21 04:31N 39°49' W 075°21'0 0.0
2018-Jul-21 04:01N 39°49' W 075°21'0 0.0
2018-Jul-21 03:30N 39°49' W 075°21'1 1.3
2018-Jul-21 03:00N 39°50' W 075°22'3 6.6
2018-Jul-21 02:31N 39°51' W 075°17'0 0.6
2018-Jul-21 02:00N 39°51' W 075°18'3 5.7
2018-Jul-21 01:30N 39°50' W 075°21'1 1.6
2018-Jul-21 01:00N 39°49' W 075°21'0 0.0
2018-Jul-21 00:30N 39°49' W 075°21'0 0.0
2018-Jul-21 00:00N 39°49' W 075°21'0 0.0
2018-Jul-20 23:30N 39°49' W 075°21'0 0.0
2018-Jul-20 23:00N 39°49' W 075°21'0 0.0
2018-Jul-20 22:30N 39°49' W 075°21'0 0.0
2018-Jul-20 22:00N 39°49' W 075°21'0 0.0
2018-Jul-20 21:30N 39°49' W 075°21'0 0.2
2018-Jul-20 21:00N 39°49' W 075°22'0 0.3
2018-Jul-20 20:30N 39°50' W 075°21'0 0.7
2018-Jul-20 20:01N 39°50' W 075°22'0 0.6
2018-Jul-20 19:30N 39°49' W 075°22'0 0.2
2018-Jul-20 19:01N 39°49' W 075°21'0 1.0
2018-Jul-20 18:30N 39°50' W 075°22'3 5.5
2018-Jul-20 17:59N 39°51' W 075°19'1 1.8
2018-Jul-20 17:30N 39°51' W 075°18'1 2.1
2018-Jul-20 17:01N 39°51' W 075°19'3 4.9
2018-Jul-20 16:30N 39°50' W 075°22'1 1.2
2018-Jul-20 16:00N 39°49' W 075°21'0 0.0
2018-Jul-20 15:31N 39°49' W 075°21'0 0.0
2018-Jul-20 15:01N 39°49' W 075°21'0 0.0
2018-Jul-20 14:30N 39°49' W 075°21'0 0.3
2018-Jul-20 14:00N 39°50' W 075°21'0 0.3
2018-Jul-20 13:31N 39°49' W 075°21'0 0.0
2018-Jul-20 13:00N 39°49' W 075°21'0 0.0
2018-Jul-20 12:30N 39°49' W 075°21'0 0.0
2018-Jul-20 12:00N 39°49' W 075°21'0 0.0
2018-Jul-20 11:31N 39°49' W 075°21'0 0.0
2018-Jul-20 11:01N 39°49' W 075°21'0 0.6
2018-Jul-20 10:31N 39°49' W 075°22'1 2.9
2018-Jul-20 10:00N 39°51' W 075°21'2 4.1
2018-Jul-20 09:30N 39°51' W 075°18'0 0.7
2018-Jul-20 09:00N 39°51' W 075°18'3 5.7
2018-Jul-20 08:30N 39°50' W 075°21'1 1.8
2018-Jul-20 08:00N 39°49' W 075°21'0 0.0
2018-Jul-20 07:31N 39°49' W 075°21'0 0.0
2018-Jul-20 07:00N 39°49' W 075°21'0 0.0
2018-Jul-20 06:30N 39°49' W 075°21'0 0.0
2018-Jul-20 06:01N 39°49' W 075°21'0 0.0
2018-Jul-20 05:30N 39°49' W 075°21'0 0.0
2018-Jul-20 05:01N 39°49' W 075°21'0 0.0
2018-Jul-20 04:31N 39°49' W 075°21'0 0.0
2018-Jul-20 04:00N 39°49' W 075°21'0 0.0
2018-Jul-20 03:30N 39°49' W 075°21'0 0.0
2018-Jul-20 03:00N 39°49' W 075°21'0 0.0
2018-Jul-20 02:30N 39°49' W 075°21'1 2.4
2018-Jul-20 02:00N 39°50' W 075°23'1 2.3
2018-Jul-20 01:30N 39°49' W 075°22'0 0.7
2018-Jul-20 01:00N 39°50' W 075°22'2 3.4
2018-Jul-20 00:30N 39°51' W 075°20'2 4.3
2018-Jul-20 00:00N 39°51' W 075°18'2 3.1
2018-Jul-19 23:30N 39°51' W 075°20'2 4.0
2018-Jul-19 23:00N 39°49' W 075°21'0 0.0
2018-Jul-19 22:30N 39°49' W 075°21'0 0.0
2018-Jul-19 22:00N 39°49' W 075°21'0 0.0
2018-Jul-19 21:30N 39°49' W 075°21'0 0.0
2018-Jul-19 21:00N 39°49' W 075°21'0 0.0
2018-Jul-19 20:30N 39°49' W 075°21'0 0.6
2018-Jul-19 20:00N 39°49' W 075°22'3 5.4
2018-Jul-19 19:30N 39°51' W 075°19'0 0.0
2018-Jul-19 19:00N 39°51' W 075°19'3 5.2
2018-Jul-19 18:30N 39°49' W 075°22'0 0.2
2018-Jul-19 17:58N 39°49' W 075°21'0 0.0
2018-Jul-19 17:30N 39°49' W 075°21'0 0.0
2018-Jul-19 16:25N 39°49' W 075°21'0 0.0
2018-Jul-19 16:00N 39°49' W 075°21'0 0.9
2018-Jul-19 15:30N 39°50' W 075°22'2 4.9
2018-Jul-19 15:00N 39°51' W 075°19'1 2.8
2018-Jul-19 14:31N 39°51' W 075°18'3 3.4
2018-Jul-19 13:30N 39°50' W 075°22'1 1.1
2018-Jul-19 13:00N 39°49' W 075°21'0 0.0
2018-Jul-19 12:30N 39°49' W 075°21'0 0.0
2018-Jul-19 12:01N 39°49' W 075°21'0 0.0
2018-Jul-19 11:30N 39°49' W 075°21'0 0.0
2018-Jul-19 11:00N 39°49' W 075°21'0 0.0
2018-Jul-19 10:30N 39°49' W 075°21'0 0.0
2018-Jul-19 10:00N 39°49' W 075°21'0 0.0
2018-Jul-19 09:30N 39°49' W 075°21'0 0.0
2018-Jul-19 09:00N 39°49' W 075°21'0 0.0
2018-Jul-19 08:31N 39°49' W 075°21'0 0.0
2018-Jul-19 08:00N 39°49' W 075°21'0 0.0
2018-Jul-19 07:30N 39°49' W 075°21'0 0.0
2018-Jul-19 07:00N 39°49' W 075°21'0 0.0
2018-Jul-19 06:30N 39°49' W 075°21'1 1.0
2018-Jul-19 06:00N 39°50' W 075°22'3 5.6
2018-Jul-19 05:30N 39°51' W 075°19'1 1.5
2018-Jul-19 05:00N 39°51' W 075°18'2 4.4
2018-Jul-19 04:30N 39°51' W 075°21'1 2.7
2018-Jul-19 04:01N 39°50' W 075°22'0 0.2
2018-Jul-19 03:29N 39°49' W 075°21'0 0.0
2018-Jul-19 03:00N 39°49' W 075°21'0 0.0
2018-Jul-19 02:30N 39°49' W 075°21'0 0.0
2018-Jul-19 02:00N 39°49' W 075°21'0 0.0
2018-Jul-19 01:30N 39°49' W 075°21'0 0.0
2018-Jul-19 01:00N 39°49' W 075°21'0 0.0
2018-Jul-19 00:30N 39°49' W 075°21'0 0.0
2018-Jul-19 00:01N 39°49' W 075°21'0 0.0
2018-Jul-18 23:30N 39°49' W 075°21'0 0.0
2018-Jul-18 23:00N 39°49' W 075°21'0 0.0
2018-Jul-18 22:30N 39°49' W 075°21'0 0.0
2018-Jul-18 22:00N 39°49' W 075°21'0 0.3
2018-Jul-18 21:30N 39°49' W 075°22'0 0.0
2018-Jul-18 21:00N 39°49' W 075°22'0 0.3
2018-Jul-18 20:30N 39°49' W 075°21'0 0.7
2018-Jul-18 20:01N 39°50' W 075°22'0 0.1
2018-Jul-18 19:30N 39°50' W 075°22'1 2.3
2018-Jul-18 19:00N 39°50' W 075°21'2 4.3
2018-Jul-18 18:30N 39°51' W 075°18'1 1.1
2018-Jul-18 18:00N 39°51' W 075°18'2 3.8
2018-Jul-18 17:30N 39°51' W 075°20'2 3.5
2018-Jul-18 17:00N 39°50' W 075°22'0 0.2
2018-Jul-18 16:30N 39°49' W 075°21'0 0.0
2018-Jul-18 16:00N 39°49' W 075°21'0 0.0
2018-Jul-18 15:29N 39°49' W 075°21'0 0.0
2018-Jul-18 15:00N 39°49' W 075°21'0 0.0
2018-Jul-18 14:30N 39°49' W 075°21'0 0.0
2018-Jul-18 13:30N 39°49' W 075°21'0 0.0
2018-Jul-18 13:00N 39°49' W 075°21'0 0.0
2018-Jul-18 12:30N 39°49' W 075°21'0 0.0
2018-Jul-18 12:01N 39°49' W 075°21'0 0.0
2018-Jul-18 11:30N 39°49' W 075°21'0 0.3
2018-Jul-18 10:30N 39°50' W 075°22'2 3.2
2018-Jul-18 10:00N 39°51' W 075°21'2 3.7
2018-Jul-18 09:30N 39°51' W 075°18'0 0.9
2018-Jul-18 08:59N 39°51' W 075°18'1 1.8
2018-Jul-18 08:31N 39°51' W 075°19'3 5.2
2018-Jul-18 08:00N 39°50' W 075°22'0 0.2
2018-Jul-18 07:30N 39°49' W 075°21'0 0.0
2018-Jul-18 07:00N 39°49' W 075°21'0 0.0
2018-Jul-18 06:30N 39°49' W 075°21'0 0.0
2018-Jul-18 06:00N 39°49' W 075°21'0 0.0
2018-Jul-18 05:30N 39°49' W 075°21'0 0.0
2018-Jul-18 05:00N 39°49' W 075°21'0 0.0
2018-Jul-18 04:30N 39°49' W 075°21'0 0.0
2018-Jul-18 04:00N 39°49' W 075°21'0 0.0
2018-Jul-18 03:31N 39°49' W 075°21'0 0.0
2018-Jul-18 03:01N 39°49' W 075°21'0 0.0
2018-Jul-18 02:30N 39°49' W 075°21'0 0.0
2018-Jul-18 02:00N 39°49' W 075°21'0 0.0
2018-Jul-18 01:30N 39°49' W 075°21'0 0.8
2018-Jul-18 01:00N 39°50' W 075°22'2 4.6
2018-Jul-18 00:30N 39°51' W 075°20'2 3.0
2018-Jul-18 00:00N 39°51' W 075°18'0 0.6
2018-Jul-17 23:30N 39°51' W 075°18'0 0.1
2018-Jul-17 22:59N 39°51' W 075°18'3 5.7
2018-Jul-17 22:30N 39°50' W 075°22'1 1.0
2018-Jul-17 22:00N 39°50' W 075°22'0 0.0
2018-Jul-17 21:30N 39°50' W 075°22'0 0.0
2018-Jul-17 21:00N 39°50' W 075°22'0 0.0
2018-Jul-17 20:30N 39°50' W 075°22'0 0.0
2018-Jul-17 20:00N 39°50' W 075°22'0 0.0
2018-Jul-17 19:30N 39°50' W 075°22'0 0.0
2018-Jul-17 18:59N 39°50' W 075°22'0 0.0
2018-Jul-17 18:30N 39°50' W 075°22'0 0.0
2018-Jul-17 18:00N 39°50' W 075°22'0 0.0
2018-Jul-17 17:30N 39°50' W 075°22'0 0.0
2018-Jul-17 17:00N 39°50' W 075°22'0 0.0
2018-Jul-17 16:31N 39°50' W 075°22'0 0.2
2018-Jul-17 16:01N 39°50' W 075°22'1 1.3
2018-Jul-17 15:30N 39°50' W 075°22'3 6.5
2018-Jul-17 15:00N 39°51' W 075°18'0 0.3
2018-Jul-17 14:30N 39°51' W 075°18'0 0.8
2018-Jul-17 14:00N 39°51' W 075°18'0 0.2
2018-Jul-17 13:30N 39°51' W 075°18'0 0.6
2018-Jul-17 13:00N 39°51' W 075°19'0 0.1
2018-Jul-17 12:30N 39°51' W 075°19'1 1.8
2018-Jul-17 12:00N 39°51' W 075°20'2 3.1
2018-Jul-17 11:31N 39°50' W 075°22'1 1.1
2018-Jul-17 11:00N 39°50' W 075°22'0 0.1
2018-Jul-17 10:30N 39°50' W 075°22'0 0.0
2018-Jul-17 10:00N 39°50' W 075°22'0 0.0
2018-Jul-17 09:30N 39°50' W 075°22'0 0.1
2018-Jul-17 09:00N 39°50' W 075°22'0 0.2
2018-Jul-17 08:30N 39°50' W 075°22'2 3.1
2018-Jul-17 08:00N 39°51' W 075°20'3 5.1
2018-Jul-17 07:30N 39°51' W 075°17'2 4.8
2018-Jul-17 07:00N 39°52' W 075°14'3 5.3
2018-Jul-17 06:30N 39°53' W 075°11'2 4.7
2018-Jul-17 06:00N 39°54' W 075°08'3 5.4
2018-Jul-17 05:30N 39°56' W 075°08'1 2.1
2018-Jul-17 05:00N 39°57' W 075°08'2 4.9
2018-Jul-17 04:30N 39°55' W 075°08'3 6.0
2018-Jul-17 04:00N 39°53' W 075°11'2 3.7
2018-Jul-17 03:31N 39°54' W 075°13'1 2.4
2018-Jul-17 03:00N 39°53' W 075°12'2 4.9
2018-Jul-17 02:30N 39°53' W 075°09'4 7.0
2018-Jul-17 02:00N 39°57' W 075°08'3 6.7
2018-Jul-17 01:30N 39°59' W 075°05'0 0.5
2018-Jul-17 01:01N 39°59' W 075°05'3 6.0
2018-Jul-17 00:30N 39°57' W 075°08'5 5.3
2018-Jul-16 23:30N 39°53' W 075°12'1 1.2
2018-Jul-16 23:00N 39°54' W 075°12'0 0.1
2018-Jul-16 22:30N 39°53' W 075°12'0 0.0
2018-Jul-16 22:00N 39°53' W 075°12'0 0.0
2018-Jul-16 21:30N 39°53' W 075°12'0 0.0
2018-Jul-16 21:00N 39°53' W 075°12'0 0.0
2018-Jul-16 20:30N 39°53' W 075°12'0 0.2
2018-Jul-16 20:00N 39°54' W 075°12'0 0.0
2018-Jul-16 19:30N 39°54' W 075°12'0 0.7
2018-Jul-16 19:00N 39°53' W 075°12'510.1
2018-Jul-16 18:30N 39°51' W 075°17'4 8.8
2018-Jul-16 18:00N 39°50' W 075°23'0 0.0
2018-Jul-16 17:30N 39°50' W 075°23'0 0.0
2018-Jul-16 17:00N 39°50' W 075°23'0 0.0
2018-Jul-16 16:30N 39°50' W 075°23'0 0.0
2018-Jul-16 16:00N 39°50' W 075°23'0 0.0
2018-Jul-16 15:30N 39°50' W 075°23'0 0.0
2018-Jul-16 15:00N 39°50' W 075°23'0 0.0
2018-Jul-16 14:30N 39°50' W 075°23'0 0.0
2018-Jul-16 14:00N 39°50' W 075°23'0 0.0
2018-Jul-16 13:29N 39°50' W 075°23'0 0.4
2018-Jul-16 13:01N 39°49' W 075°23'4 7.6
2018-Jul-16 12:30N 39°47' W 075°27'4 7.3
2018-Jul-16 12:00N 39°44' W 075°30'3 6.9
2018-Jul-16 11:30N 39°41' W 075°31'3 5.6
2018-Jul-16 11:00N 39°39' W 075°33'2 5.0
2018-Jul-16 10:31N 39°37' W 075°34'2 4.5
2018-Jul-16 10:01N 39°34' W 075°33'3 5.4
2018-Jul-16 09:30N 39°33' W 075°36'4 7.6
2018-Jul-16 09:00N 39°33' W 075°41'3 6.9
2018-Jul-16 08:30N 39°32' W 075°46'3 6.8
2018-Jul-16 08:00N 39°32' W 075°50'3 6.9
2018-Jul-16 07:30N 39°31' W 075°54'4 7.8
2018-Jul-16 07:00N 39°28' W 075°58'4 8.5
2018-Jul-16 06:29N 39°25' W 076°02'4 8.6
2018-Jul-16 06:00N 39°23' W 076°06'4 8.8
2018-Jul-16 05:30N 39°20' W 076°11'5 8.8
2018-Jul-16 04:59N 39°17' W 076°15'4 8.8
2018-Jul-16 04:30N 39°14' W 076°19'5 9.0
2018-Jul-16 03:57N 39°11' W 076°24'5 8.6
2018-Jul-16 03:24N 39°12' W 076°31'4 9.5
2018-Jul-16 03:00N 39°15' W 076°34'2 4.2
2018-Jul-16 02:28N 39°16' W 076°36'0 0.0
2018-Jul-16 01:59N 39°16' W 076°36'0 0.0
2018-Jul-16 01:30N 39°16' W 076°36'0 0.0
2018-Jul-16 01:00N 39°16' W 076°36'0 0.0
2018-Jul-16 00:30N 39°16' W 076°36'0 0.0
2018-Jul-16 00:00N 39°16' W 076°36'0 0.0
2018-Jul-15 23:30N 39°16' W 076°36'0 0.0
2018-Jul-15 22:59N 39°16' W 076°36'0 0.0
2018-Jul-15 22:30N 39°16' W 076°36'0 0.0
2018-Jul-15 22:00N 39°16' W 076°36'0 0.0
2018-Jul-15 21:30N 39°16' W 076°36'0 0.0
2018-Jul-15 20:59N 39°16' W 076°36'0 0.0
2018-Jul-15 20:30N 39°16' W 076°36'0 0.0
2018-Jul-15 20:00N 39°16' W 076°36'0 0.0
2018-Jul-15 19:29N 39°16' W 076°36'0 0.0
2018-Jul-15 19:00N 39°16' W 076°36'0 0.0
2018-Jul-15 18:30N 39°16' W 076°36'0 0.0
2018-Jul-15 18:00N 39°16' W 076°36'0 0.0
2018-Jul-15 17:30N 39°16' W 076°36'0 0.0
2018-Jul-15 16:59N 39°16' W 076°36'0 0.0
2018-Jul-15 16:30N 39°16' W 076°36'0 0.0
2018-Jul-15 16:00N 39°16' W 076°36'0 0.0
2018-Jul-15 15:30N 39°16' W 076°36'0 0.0
2018-Jul-15 15:00N 39°16' W 076°36'0 0.0
2018-Jul-15 14:30N 39°16' W 076°36'0 0.0
2018-Jul-15 14:00N 39°16' W 076°36'0 0.0
2018-Jul-15 13:30N 39°16' W 076°36'0 0.0
2018-Jul-15 13:00N 39°16' W 076°36'0 0.0
2018-Jul-15 12:30N 39°16' W 076°36'0 0.0
2018-Jul-15 12:00N 39°16' W 076°36'0 0.0
2018-Jul-15 11:30N 39°16' W 076°36'0 0.0
2018-Jul-15 11:00N 39°16' W 076°36'0 0.0
2018-Jul-15 10:30N 39°16' W 076°36'0 0.0
2018-Jul-15 10:00N 39°16' W 076°36'0 0.0
2018-Jul-15 09:30N 39°16' W 076°36'0 0.0
2018-Jul-15 08:56N 39°16' W 076°36'0 0.0
2018-Jul-15 08:30N 39°16' W 076°36'0 0.0
2018-Jul-15 07:59N 39°16' W 076°36'0 0.0
2018-Jul-15 07:30N 39°16' W 076°36'0 0.0
2018-Jul-15 07:00N 39°16' W 076°36'0 0.0
2018-Jul-15 06:30N 39°16' W 076°36'0 0.0
2018-Jul-15 06:01N 39°16' W 076°36'0 0.0
2018-Jul-15 05:30N 39°16' W 076°36'0 0.0
2018-Jul-15 05:00N 39°16' W 076°36'0 0.0
2018-Jul-15 04:30N 39°16' W 076°36'0 0.0
2018-Jul-15 04:00N 39°16' W 076°36'0 0.0
2018-Jul-15 03:30N 39°16' W 076°36'0 0.0
2018-Jul-15 03:00N 39°16' W 076°36'0 0.0
2018-Jul-15 02:30N 39°16' W 076°36'0 0.0
2018-Jul-15 02:00N 39°16' W 076°36'0 0.0
2018-Jul-15 01:30N 39°16' W 076°36'0 0.0
2018-Jul-15 01:00N 39°16' W 076°36'0 0.0
2018-Jul-15 00:30N 39°16' W 076°36'0 0.0
2018-Jul-15 00:00N 39°16' W 076°36'0 0.0
2018-Jul-14 23:30N 39°16' W 076°36'0 0.0
2018-Jul-14 23:00N 39°16' W 076°36'0 0.0
2018-Jul-14 22:31N 39°16' W 076°36'0 0.0
2018-Jul-14 22:00N 39°16' W 076°36'0 0.0
2018-Jul-14 21:30N 39°16' W 076°36'0 0.0
2018-Jul-14 21:00N 39°16' W 076°36'0 0.0
2018-Jul-14 20:30N 39°16' W 076°36'0 0.0
2018-Jul-14 20:00N 39°16' W 076°36'0 0.0
2018-Jul-14 19:30N 39°16' W 076°36'0 0.0
2018-Jul-14 19:00N 39°16' W 076°36'0 0.0
2018-Jul-14 18:30N 39°16' W 076°36'0 0.0
2018-Jul-14 18:00N 39°16' W 076°36'0 0.0
2018-Jul-14 17:30N 39°16' W 076°36'0 0.0
2018-Jul-14 17:00N 39°16' W 076°36'0 0.0
2018-Jul-14 16:30N 39°16' W 076°36'0 0.0
2018-Jul-14 16:00N 39°16' W 076°36'0 0.0
2018-Jul-14 15:30N 39°16' W 076°36'0 0.0
2018-Jul-14 15:00N 39°16' W 076°36'0 0.0
2018-Jul-14 14:30N 39°16' W 076°36'0 0.0
2018-Jul-14 13:30N 39°16' W 076°36'0 0.0
2018-Jul-14 13:00N 39°16' W 076°36'0 0.0
2018-Jul-14 12:30N 39°16' W 076°36'0 0.0
2018-Jul-14 12:00N 39°16' W 076°36'0 0.0
2018-Jul-14 11:30N 39°16' W 076°36'0 0.0
2018-Jul-14 11:00N 39°16' W 076°36'0 0.0
2018-Jul-14 10:30N 39°16' W 076°36'0 0.0
2018-Jul-14 10:00N 39°16' W 076°36'0 0.0
2018-Jul-14 09:29N 39°16' W 076°36'0 0.0
2018-Jul-14 09:00N 39°16' W 076°36'0 0.0
2018-Jul-14 08:30N 39°16' W 076°36'0 0.0
2018-Jul-14 08:00N 39°16' W 076°36'0 0.0
2018-Jul-14 07:30N 39°16' W 076°36'0 0.0
2018-Jul-14 07:00N 39°16' W 076°36'0 0.0
2018-Jul-14 06:30N 39°16' W 076°36'0 0.0
2018-Jul-14 06:00N 39°16' W 076°36'0 0.0
2018-Jul-14 05:30N 39°16' W 076°36'0 0.0
2018-Jul-14 05:00N 39°16' W 076°36'0 0.0
2018-Jul-14 04:30N 39°16' W 076°36'0 0.0
2018-Jul-14 04:00N 39°16' W 076°36'0 0.0
2018-Jul-14 03:30N 39°16' W 076°36'0 0.0
2018-Jul-14 03:00N 39°16' W 076°36'0 0.0
2018-Jul-14 02:30N 39°16' W 076°36'0 0.0
2018-Jul-14 02:00N 39°16' W 076°36'0 0.0
2018-Jul-14 01:30N 39°16' W 076°36'0 0.0
2018-Jul-14 01:00N 39°16' W 076°36'0 0.0
2018-Jul-14 00:30N 39°16' W 076°36'0 0.0
2018-Jul-14 00:00N 39°16' W 076°36'0 0.0
2018-Jul-13 23:30N 39°16' W 076°36'0 0.0
2018-Jul-13 23:00N 39°16' W 076°36'0 0.0
2018-Jul-13 22:30N 39°16' W 076°36'0 0.0
2018-Jul-13 22:00N 39°16' W 076°36'0 0.0
2018-Jul-13 21:30N 39°16' W 076°36'0 0.0
2018-Jul-13 21:00N 39°16' W 076°36'0 0.0
2018-Jul-13 20:30N 39°16' W 076°36'0 0.0
2018-Jul-13 20:00N 39°16' W 076°36'0 0.0
2018-Jul-13 19:30N 39°16' W 076°36'0 0.0
2018-Jul-13 19:00N 39°16' W 076°36'0 0.0
2018-Jul-13 18:30N 39°16' W 076°36'0 0.0
2018-Jul-13 18:00N 39°16' W 076°36'0 0.0
2018-Jul-13 17:30N 39°16' W 076°36'0 0.0
2018-Jul-13 17:00N 39°16' W 076°36'0 0.0
2018-Jul-13 16:30N 39°16' W 076°36'0 0.0
2018-Jul-13 12:38N 39°16' W 076°36'0 0.0
2018-Jul-13 12:30N 39°16' W 076°36'0 0.0
2018-Jul-13 12:00N 39°16' W 076°36'0 0.0
2018-Jul-13 11:31N 39°16' W 076°36'0 0.0
2018-Jul-13 11:01N 39°16' W 076°36'0 0.0
2018-Jul-13 10:30N 39°16' W 076°36'0 0.0
2018-Jul-13 10:00N 39°16' W 076°36'0 0.0
2018-Jul-13 09:30N 39°16' W 076°36'0 0.0
2018-Jul-13 09:00N 39°16' W 076°36'0 0.0
2018-Jul-13 08:30N 39°16' W 076°36'0 0.0
2018-Jul-13 08:01N 39°16' W 076°36'  

Dump ship's entire track history